createdAt,value
2022-10-17T00:02:23.920Z,0.97
2022-10-17T00:04:57.915Z,1.37
2022-10-17T00:07:26.745Z,1.53
2022-10-17T00:10:01.915Z,1.40
2022-10-17T00:12:36.835Z,1.73
2022-10-17T00:15:10.183Z,1.80
2022-10-17T00:17:41.044Z,1.80
2022-10-17T00:20:23.984Z,1.80
2022-10-17T00:22:59.367Z,1.80
2022-10-17T00:25:32.427Z,2.30
2022-10-17T00:28:01.273Z,1.80
2022-10-17T00:30:29.583Z,1.97
2022-10-17T00:32:58.156Z,1.80
2022-10-17T00:35:37.395Z,2.00
2022-10-17T00:38:08.446Z,1.73
2022-10-17T00:40:49.382Z,1.93
2022-10-17T00:43:35.914Z,1.70
2022-10-17T00:46:04.278Z,1.70
2022-10-17T00:48:33.894Z,1.97
2022-10-17T00:51:03.538Z,2.00
2022-10-17T00:53:36.604Z,2.57
2022-10-17T00:56:05.291Z,1.90
2022-10-17T00:58:42.882Z,1.60
2022-10-17T01:01:16.423Z,1.30
2022-10-17T01:03:45.220Z,1.47
2022-10-17T01:06:17.347Z,1.40
2022-10-17T01:08:51.322Z,1.80
2022-10-17T01:11:34.731Z,1.77
2022-10-17T01:14:07.919Z,1.27
2022-10-17T01:17:01.819Z,1.30
2022-10-17T01:19:45.772Z,1.80
2022-10-17T01:22:28.829Z,1.30
2022-10-17T01:25:20.114Z,1.37
2022-10-17T01:28:11.467Z,1.30
2022-10-17T01:31:00.298Z,1.30
2022-10-17T01:33:45.649Z,1.67
2022-10-17T01:36:36.685Z,1.83
2022-10-17T01:39:25.882Z,1.83
2022-10-17T01:42:07.317Z,2.03
2022-10-17T01:44:47.589Z,1.57
2022-10-17T01:47:34.406Z,1.40
2022-10-17T01:50:25.529Z,2.10
2022-10-17T01:52:58.255Z,1.67
2022-10-17T01:55:33.414Z,1.70
2022-10-17T01:58:06.826Z,1.97
2022-10-17T02:00:42.812Z,2.00
2022-10-17T02:03:20.585Z,1.60
2022-10-17T02:05:49.471Z,1.73
2022-10-17T02:08:30.506Z,1.70
2022-10-17T02:11:04.636Z,1.70
2022-10-17T02:13:52.099Z,1.10
2022-10-17T02:16:36.539Z,0.80
2022-10-17T02:19:25.086Z,1.00
2022-10-17T02:22:06.878Z,1.00
2022-10-17T02:25:00.992Z,1.10
2022-10-17T02:27:47.276Z,1.43
2022-10-17T02:30:37.397Z,1.30
2022-10-17T02:33:15.776Z,1.40
2022-10-17T02:35:56.813Z,1.50
2022-10-17T02:38:41.989Z,1.60
2022-10-17T02:44:12.796Z,1.60
2022-10-17T02:46:44.248Z,1.67
2022-10-17T02:49:51.991Z,1.70
2022-10-17T02:52:37.945Z,1.30
2022-10-17T02:55:26.357Z,1.60
2022-10-17T02:58:11.101Z,1.90
2022-10-17T03:00:51.534Z,1.47
2022-10-17T03:03:27.311Z,1.90
2022-10-17T03:06:04.096Z,1.70
2022-10-17T03:09:26.362Z,1.47
2022-10-17T03:12:05.702Z,1.67
2022-10-17T03:14:52.827Z,2.07
2022-10-17T03:17:29.548Z,1.50
2022-10-17T03:20:02.884Z,1.57
2022-10-17T03:22:36.703Z,1.87
2022-10-17T03:25:22.496Z,1.50
2022-10-17T03:27:54.096Z,1.67
2022-10-17T03:30:33.985Z,1.93
2022-10-17T03:33:08.133Z,3.00
2022-10-17T03:35:44.539Z,1.97
2022-10-17T03:38:18.490Z,1.90
2022-10-17T03:41:07.093Z,1.70
2022-10-17T03:43:42.549Z,1.83
2022-10-17T03:46:11.186Z,1.97
2022-10-17T03:48:39.911Z,2.00
2022-10-17T03:51:11.039Z,1.70
2022-10-17T03:53:45.442Z,1.90
2022-10-17T03:56:54.349Z,1.93
2022-10-17T03:59:49.951Z,2.90
2022-10-17T04:02:27.746Z,1.65
2022-10-17T04:05:05.602Z,1.50
2022-10-17T04:07:53.176Z,1.60
2022-10-17T04:10:30.704Z,1.50
2022-10-17T04:38:56.313Z,1.97
2022-10-17T04:41:29.662Z,1.60
2022-10-17T04:44:16.559Z,1.93
2022-10-17T04:46:55.343Z,2.00
2022-10-17T04:49:31.958Z,1.67
2022-10-17T04:52:13.833Z,4.53
2022-10-17T04:54:45.423Z,2.23
2022-10-17T04:57:19.990Z,1.97
2022-10-17T05:00:36.264Z,1.53
2022-10-17T05:06:11.071Z,1.57
2022-10-17T05:09:01.642Z,1.80
2022-10-17T05:11:34.769Z,1.60
2022-10-17T05:14:05.608Z,1.80
2022-10-17T05:16:48.265Z,1.97
2022-10-17T05:19:36.103Z,2.10
2022-10-17T05:22:14.982Z,2.30
2022-10-17T05:24:45.714Z,2.30
2022-10-17T05:28:21.148Z,2.43
2022-10-17T05:34:37.912Z,1.67
2022-10-17T05:40:32.998Z,1.20
2022-10-17T05:43:20.976Z,1.77
2022-10-17T05:45:57.211Z,1.67
2022-10-17T05:48:34.816Z,2.53
2022-10-17T05:51:42.073Z,1.73
2022-10-17T05:54:37.367Z,1.87
2022-10-17T06:04:09.292Z,2.27
2022-10-17T06:07:40.634Z,2.00
2022-10-17T06:14:34.262Z,1.60
2022-10-17T06:17:37.271Z,1.77
2022-10-17T06:20:29.539Z,1.80
2022-10-17T07:51:58.477Z,2.87
2022-10-17T07:54:52.309Z,2.93
2022-10-17T07:57:28.402Z,2.90
2022-10-17T07:59:57.073Z,2.73
2022-10-17T08:02:29.009Z,3.17
2022-10-17T08:04:59.174Z,2.90
2022-10-17T08:07:29.477Z,2.60
2022-10-17T08:09:58.632Z,2.60
2022-10-17T08:12:32.524Z,2.70
2022-10-17T08:15:04.677Z,3.13
2022-10-17T08:17:33.641Z,2.73
2022-10-17T08:20:10.245Z,2.60
2022-10-17T08:22:45.814Z,3.33
2022-10-17T08:25:14.714Z,2.63
2022-10-17T08:27:52.912Z,2.60
2022-10-17T08:30:26.153Z,2.80
2022-10-17T08:32:56.194Z,2.40
2022-10-17T08:35:27.328Z,2.80
2022-10-17T08:38:01.637Z,3.03
2022-10-17T08:40:33.931Z,2.53
2022-10-17T08:43:27.576Z,2.87
2022-10-17T08:46:00.459Z,3.00
2022-10-17T08:48:31.548Z,3.03
2022-10-17T08:51:09.431Z,2.50
2022-10-17T08:54:13.615Z,2.63
2022-10-17T08:56:49.840Z,2.37
2022-10-17T08:59:27.620Z,2.50
2022-10-17T09:02:01.590Z,2.50
2022-10-17T09:04:49.862Z,2.40
2022-10-17T09:07:27.803Z,2.60
2022-10-17T09:10:16.060Z,2.77
2022-10-17T09:12:53.616Z,2.40
2022-10-17T09:15:53.388Z,2.47
2022-10-17T09:18:49.260Z,2.50
2022-10-17T09:21:23.194Z,2.40
2022-10-17T09:24:08.781Z,2.40
2022-10-17T09:26:47.501Z,2.20
2022-10-17T09:29:23.214Z,2.30
2022-10-17T09:32:02.120Z,2.40
2022-10-17T09:34:35.678Z,2.47
2022-10-17T09:37:13.020Z,2.43
2022-10-17T09:39:47.102Z,2.67
2022-10-17T09:42:19.486Z,2.60
2022-10-17T09:44:54.120Z,2.33
2022-10-17T09:48:06.417Z,2.90
2022-10-17T09:50:36.155Z,2.87
2022-10-17T09:53:13.812Z,2.60
2022-10-17T09:55:48.668Z,2.90
2022-10-17T09:58:17.482Z,2.93
2022-10-17T10:00:49.085Z,2.80
2022-10-17T10:03:34.152Z,2.90
2022-10-17T10:06:44.651Z,3.17
2022-10-17T10:09:25.626Z,3.07
2022-10-17T10:11:58.633Z,2.47
2022-10-17T10:14:33.527Z,2.70
2022-10-17T10:17:03.388Z,2.47
2022-10-17T10:19:34.293Z,2.53
2022-10-17T10:22:04.839Z,2.40
2022-10-17T10:24:33.787Z,2.33
2022-10-17T10:27:05.764Z,2.07
2022-10-17T10:29:36.423Z,2.00
2022-10-17T10:32:18.329Z,2.60
2022-10-17T10:34:50.806Z,2.33
2022-10-17T10:37:34.927Z,2.20
2022-10-17T10:40:29.680Z,2.33
2022-10-17T10:43:07.632Z,2.27
2022-10-17T10:45:48.444Z,2.03
2022-10-17T10:51:42.841Z,2.23
2022-10-17T10:57:20.140Z,1.83
2022-10-17T11:00:04.194Z,2.13
2022-10-17T11:03:48.113Z,2.07
2022-10-17T11:06:40.010Z,2.00
2022-10-17T11:09:33.022Z,1.90
2022-10-17T11:21:08.814Z,2.00
2022-10-17T11:25:10.652Z,2.23
2022-10-17T11:28:14.805Z,2.17
2022-10-17T11:31:35.939Z,2.50
2022-10-17T11:34:23.259Z,1.90
2022-10-17T11:37:34.375Z,2.97
2022-10-17T11:40:26.658Z,3.50
2022-10-17T11:43:13.115Z,2.00
2022-10-17T11:46:27.746Z,2.30
2022-10-17T11:49:43.778Z,2.27
2022-10-17T11:52:59.370Z,1.90
2022-10-17T11:55:43.420Z,2.07
2022-10-17T11:58:44.975Z,1.90
2022-10-17T12:01:23.153Z,2.20
2022-10-17T12:09:30.162Z,1.90
2022-10-17T12:12:07.155Z,1.90
2022-10-17T12:14:42.193Z,2.20
2022-10-17T12:17:48.390Z,2.00
2022-10-17T12:20:45.608Z,2.03
2022-10-17T12:33:19.102Z,2.07
2022-10-17T12:36:53.427Z,2.20
2022-10-17T12:52:39.260Z,1.80
2022-10-17T12:55:43.003Z,2.30
2022-10-17T12:58:49.668Z,2.00
2022-10-17T13:02:05.381Z,2.07
2022-10-17T13:05:32.294Z,2.00
2022-10-17T13:08:31.393Z,1.90
2022-10-17T13:11:11.010Z,2.07
2022-10-17T13:21:48.229Z,1.80
2022-10-17T13:28:39.216Z,2.37
2022-10-17T13:32:05.992Z,2.10
2022-10-17T14:05:20.154Z,1.87
2022-10-17T17:37:12.547Z,3.23
2022-10-17T17:40:00.989Z,2.87
2022-10-17T17:42:49.339Z,2.83
2022-10-17T17:45:20.179Z,3.70
2022-10-17T17:48:08.730Z,3.20
2022-10-17T17:50:46.381Z,3.03
2022-10-17T17:53:17.805Z,3.40
2022-10-17T17:55:49.299Z,2.90
2022-10-17T17:58:21.709Z,3.60
2022-10-17T18:00:50.176Z,2.83
2022-10-17T18:03:18.694Z,2.97
2022-10-17T18:06:56.920Z,2.60
2022-10-17T18:13:13.451Z,2.90
2022-10-17T18:25:04.240Z,2.80
2022-10-17T18:27:22.661Z,2.90
2022-10-17T18:29:55.609Z,2.90
2022-10-17T18:36:37.673Z,3.10
2022-10-17T19:07:52.712Z,2.90
2022-10-17T19:34:40.187Z,2.80
2022-10-17T19:41:33.313Z,3.00
2022-10-17T19:45:03.214Z,3.30
2022-10-17T19:49:25.027Z,3.07
2022-10-17T19:51:58.048Z,2.80
2022-10-17T19:54:35.559Z,3.10
2022-10-17T20:00:30.395Z,2.70
2022-10-17T20:03:13.309Z,1.83
2022-10-17T20:06:36.494Z,1.90
2022-10-17T20:09:08.796Z,2.67
2022-10-17T20:12:33.820Z,3.13
2022-10-17T20:15:02.493Z,2.67
2022-10-17T20:20:08.900Z,2.77
2022-10-17T20:22:52.440Z,3.40
2022-10-17T20:25:25.931Z,2.50
2022-10-17T20:28:00.751Z,2.67
2022-10-17T20:30:53.630Z,2.13
2022-10-17T20:33:31.947Z,2.30
2022-10-17T20:36:00.588Z,2.50
2022-10-17T20:38:28.864Z,2.50
2022-10-17T20:41:10.326Z,3.03
2022-10-17T20:43:54.638Z,2.70
2022-10-17T20:46:36.956Z,2.80
2022-10-17T20:49:15.291Z,2.93
2022-10-17T20:51:46.966Z,2.70
2022-10-17T20:54:25.174Z,2.57
2022-10-17T20:56:59.845Z,2.77
2022-10-17T20:59:37.651Z,3.20
2022-10-17T21:02:06.776Z,2.80
2022-10-17T21:04:50.752Z,3.30
2022-10-17T21:07:22.232Z,2.93
2022-10-17T21:10:00.328Z,2.40
2022-10-17T21:12:53.248Z,2.50
2022-10-17T21:15:25.864Z,3.07
2022-10-17T21:17:56.392Z,2.97
2022-10-17T21:20:35.105Z,2.90
2022-10-17T21:23:07.283Z,3.20
2022-10-17T21:25:40.686Z,2.93
2022-10-17T21:28:18.508Z,3.20
2022-10-17T21:31:16.434Z,3.03
2022-10-17T21:33:53.509Z,3.20
2022-10-17T21:36:33.499Z,3.00
2022-10-17T21:41:42.182Z,3.83
2022-10-17T21:44:22.468Z,2.93
2022-10-17T21:47:03.096Z,2.40
2022-10-17T21:49:50.498Z,3.47
2022-10-17T21:52:29.219Z,2.53
2022-10-17T21:55:00.575Z,2.97
2022-10-17T21:57:30.426Z,2.87
2022-10-17T21:59:58.830Z,3.33
2022-10-17T22:02:33.049Z,3.00
2022-10-17T22:05:04.201Z,3.40
2022-10-17T22:07:35.364Z,3.23
2022-10-17T22:10:03.762Z,3.07
2022-10-17T22:12:32.554Z,3.73
2022-10-17T22:15:00.968Z,3.40
2022-10-17T22:17:33.465Z,3.40
2022-10-17T22:20:01.664Z,3.33
2022-10-17T22:22:31.203Z,3.30
2022-10-17T22:25:02.039Z,3.40
2022-10-17T22:27:34.220Z,3.20
2022-10-17T22:30:10.393Z,3.13
2022-10-17T22:32:45.328Z,3.40
2022-10-17T22:35:27.282Z,3.60
2022-10-17T22:38:13.791Z,3.63
2022-10-17T22:40:47.760Z,3.33
2022-10-17T22:43:15.963Z,3.77
2022-10-17T22:45:44.181Z,3.80
2022-10-17T22:48:15.497Z,3.77
2022-10-17T22:50:43.810Z,3.80
2022-10-17T22:53:12.270Z,4.17
2022-10-17T22:55:40.605Z,4.37
2022-10-17T22:58:08.750Z,3.50
2022-10-17T23:00:36.975Z,3.97
2022-10-17T23:03:05.044Z,3.93
2022-10-17T23:05:34.387Z,3.70
2022-10-17T23:08:02.614Z,3.23
2022-10-17T23:10:30.641Z,3.40
2022-10-17T23:12:58.673Z,3.60
2022-10-17T23:15:26.890Z,3.60
2022-10-17T23:17:55.291Z,3.60
2022-10-17T23:20:23.327Z,3.17
2022-10-17T23:22:52.936Z,4.17
2022-10-17T23:25:21.115Z,4.07
2022-10-17T23:27:49.248Z,3.90
2022-10-17T23:30:17.493Z,4.10
2022-10-17T23:32:45.768Z,3.90
2022-10-17T23:35:13.937Z,4.00
2022-10-17T23:37:42.247Z,3.67
2022-10-17T23:40:13.662Z,3.30
2022-10-17T23:42:41.880Z,3.93
2022-10-17T23:45:11.112Z,3.30
2022-10-17T23:47:39.755Z,3.80
2022-10-17T23:50:08.774Z,3.37
2022-10-17T23:52:37.011Z,3.83
2022-10-17T23:55:06.061Z,3.60
2022-10-17T23:57:35.596Z,3.27
